sensor_id;sensor_type;location;lat;lon;timestamp;P1;durP1;ratioP1;P2;durP2;ratioP2
70385;SDS011;63206;55.650;37.500;2023-02-18T00:01:14;25.02;;;9.02;;
70385;SDS011;63206;55.650;37.500;2023-02-18T00:03:44;30.95;;;10.75;;
70385;SDS011;63206;55.650;37.500;2023-02-18T00:06:11;22.48;;;8.40;;
70385;SDS011;63206;55.650;37.500;2023-02-18T00:08:38;24.80;;;9.15;;
70385;SDS011;63206;55.650;37.500;2023-02-18T00:11:04;25.65;;;9.60;;
70385;SDS011;63206;55.650;37.500;2023-02-18T00:13:30;26.52;;;10.05;;
70385;SDS011;63206;55.650;37.500;2023-02-18T00:16:09;29.15;;;7.95;;
70385;SDS011;63206;55.650;37.500;2023-02-18T00:18:38;26.27;;;8.45;;
70385;SDS011;63206;55.650;37.500;2023-02-18T00:21:07;29.08;;;9.43;;
70385;SDS011;63206;55.650;37.500;2023-02-18T00:23:33;24.52;;;9.05;;
70385;SDS011;63206;55.650;37.500;2023-02-18T00:26:11;26.42;;;8.82;;
70385;SDS011;63206;55.650;37.500;2023-02-18T00:28:38;23.92;;;8.50;;
70385;SDS011;63206;55.650;37.500;2023-02-18T00:31:05;22.33;;;7.88;;
70385;SDS011;63206;55.650;37.500;2023-02-18T00:33:37;22.95;;;8.45;;
70385;SDS011;63206;55.650;37.500;2023-02-18T00:36:15;22.35;;;7.32;;
70385;SDS011;63206;55.650;37.500;2023-02-18T00:38:46;22.77;;;7.85;;
70385;SDS011;63206;55.650;37.500;2023-02-18T00:41:15;25.75;;;7.97;;
70385;SDS011;63206;55.650;37.500;2023-02-18T00:43:41;24.23;;;8.48;;
70385;SDS011;63206;55.650;37.500;2023-02-18T00:46:07;27.33;;;9.38;;
70385;SDS011;63206;55.650;37.500;2023-02-18T00:48:36;27.17;;;9.45;;
70385;SDS011;63206;55.650;37.500;2023-02-18T00:51:07;24.80;;;9.23;;
70385;SDS011;63206;55.650;37.500;2023-02-18T00:53:36;24.98;;;7.90;;
70385;SDS011;63206;55.650;37.500;2023-02-18T00:56:02;24.50;;;8.02;;
70385;SDS011;63206;55.650;37.500;2023-02-18T00:58:28;24.77;;;8.85;;
70385;SDS011;63206;55.650;37.500;2023-02-18T01:00:57;26.15;;;8.95;;
70385;SDS011;63206;55.650;37.500;2023-02-18T01:03:26;27.38;;;8.57;;
70385;SDS011;63206;55.650;37.500;2023-02-18T01:05:55;22.20;;;9.00;;
70385;SDS011;63206;55.650;37.500;2023-02-18T01:08:23;24.70;;;9.00;;
70385;SDS011;63206;55.650;37.500;2023-02-18T01:10:53;27.90;;;9.20;;
70385;SDS011;63206;55.650;37.500;2023-02-18T01:13:19;23.88;;;8.98;;
70385;SDS011;63206;55.650;37.500;2023-02-18T01:15:48;31.13;;;10.07;;
70385;SDS011;63206;55.650;37.500;2023-02-18T01:18:23;27.00;;;9.23;;
70385;SDS011;63206;55.650;37.500;2023-02-18T01:20:51;29.23;;;9.73;;
70385;SDS011;63206;55.650;37.500;2023-02-18T01:23:23;24.98;;;8.38;;
70385;SDS011;63206;55.650;37.500;2023-02-18T01:25:49;27.50;;;8.07;;
70385;SDS011;63206;55.650;37.500;2023-02-18T01:28:15;23.23;;;9.02;;
70385;SDS011;63206;55.650;37.500;2023-02-18T01:30:48;19.52;;;7.55;;
70385;SDS011;63206;55.650;37.500;2023-02-18T01:33:17;17.45;;;7.40;;
70385;SDS011;63206;55.650;37.500;2023-02-18T01:35:49;23.70;;;7.40;;
70385;SDS011;63206;55.650;37.500;2023-02-18T01:38:21;24.77;;;8.82;;
70385;SDS011;63206;55.650;37.500;2023-02-18T01:40:48;22.15;;;6.95;;
70385;SDS011;63206;55.650;37.500;2023-02-18T01:43:16;24.70;;;8.57;;
70385;SDS011;63206;55.650;37.500;2023-02-18T01:45:48;20.80;;;7.82;;
70385;SDS011;63206;55.650;37.500;2023-02-18T01:50:48;17.10;;;5.95;;
70385;SDS011;63206;55.650;37.500;2023-02-18T01:53:17;21.20;;;8.43;;
70385;SDS011;63206;55.650;37.500;2023-02-18T01:55:45;26.15;;;7.72;;
70385;SDS011;63206;55.650;37.500;2023-02-18T01:58:15;22.85;;;7.60;;
70385;SDS011;63206;55.650;37.500;2023-02-18T02:00:47;25.13;;;8.70;;
70385;SDS011;63206;55.650;37.500;2023-02-18T02:03:16;21.05;;;8.07;;
70385;SDS011;63206;55.650;37.500;2023-02-18T02:05:50;19.33;;;7.45;;
70385;SDS011;63206;55.650;37.500;2023-02-18T02:08:16;22.33;;;7.63;;
70385;SDS011;63206;55.650;37.500;2023-02-18T02:18:48;23.95;;;7.85;;
70385;SDS011;63206;55.650;37.500;2023-02-18T02:26:58;22.35;;;7.20;;
70385;SDS011;63206;55.650;37.500;2023-02-18T02:29:40;17.98;;;6.28;;
70385;SDS011;63206;55.650;37.500;2023-02-18T02:32:31;27.13;;;8.98;;
70385;SDS011;63206;55.650;37.500;2023-02-18T02:35:43;23.98;;;8.95;;
70385;SDS011;63206;55.650;37.500;2023-02-18T02:37:57;24.55;;;9.07;;
70385;SDS011;63206;55.650;37.500;2023-02-18T02:40:34;21.63;;;7.93;;
70385;SDS011;63206;55.650;37.500;2023-02-18T02:43:07;23.77;;;7.72;;
70385;SDS011;63206;55.650;37.500;2023-02-18T02:51:05;26.73;;;7.05;;
70385;SDS011;63206;55.650;37.500;2023-02-18T02:53:39;20.70;;;7.70;;
70385;SDS011;63206;55.650;37.500;2023-02-18T02:56:14;21.30;;;7.35;;
70385;SDS011;63206;55.650;37.500;2023-02-18T02:58:43;18.10;;;7.30;;
70385;SDS011;63206;55.650;37.500;2023-02-18T03:09:46;23.45;;;8.73;;
70385;SDS011;63206;55.650;37.500;2023-02-18T03:17:39;24.42;;;7.35;;
70385;SDS011;63206;55.650;37.500;2023-02-18T03:20:18;23.08;;;7.50;;
70385;SDS011;63206;55.650;37.500;2023-02-18T03:22:46;17.40;;;6.25;;
70385;SDS011;63206;55.650;37.500;2023-02-18T03:25:13;14.50;;;6.15;;
70385;SDS011;63206;55.650;37.500;2023-02-18T03:27:52;20.00;;;7.05;;
70385;SDS011;63206;55.650;37.500;2023-02-18T03:32:56;23.80;;;7.05;;
70385;SDS011;63206;55.650;37.500;2023-02-18T03:35:29;18.88;;;6.32;;
70385;SDS011;63206;55.650;37.500;2023-02-18T03:38:00;22.35;;;7.85;;
70385;SDS011;63206;55.650;37.500;2023-02-18T03:40:29;23.23;;;7.93;;
70385;SDS011;63206;55.650;37.500;2023-02-18T03:42:58;25.95;;;8.07;;
70385;SDS011;63206;55.650;37.500;2023-02-18T03:45:27;22.38;;;8.45;;
70385;SDS011;63206;55.650;37.500;2023-02-18T03:47:55;28.98;;;10.52;;
70385;SDS011;63206;55.650;37.500;2023-02-18T03:50:23;32.92;;;11.93;;
70385;SDS011;63206;55.650;37.500;2023-02-18T03:52:48;37.40;;;10.63;;
70385;SDS011;63206;55.650;37.500;2023-02-18T03:55:22;33.50;;;11.60;;
70385;SDS011;63206;55.650;37.500;2023-02-18T03:57:57;39.58;;;11.48;;
70385;SDS011;63206;55.650;37.500;2023-02-18T04:00:28;28.17;;;9.55;;
70385;SDS011;63206;55.650;37.500;2023-02-18T04:03:00;32.55;;;9.75;;
70385;SDS011;63206;55.650;37.500;2023-02-18T04:05:34;36.80;;;12.82;;
70385;SDS011;63206;55.650;37.500;2023-02-18T04:08:04;39.78;;;12.05;;
70385;SDS011;63206;55.650;37.500;2023-02-18T04:10:35;35.72;;;12.23;;
70385;SDS011;63206;55.650;37.500;2023-02-18T04:13:04;30.52;;;11.10;;
70385;SDS011;63206;55.650;37.500;2023-02-18T04:15:30;33.13;;;10.68;;
70385;SDS011;63206;55.650;37.500;2023-02-18T04:17:56;37.90;;;12.50;;
70385;SDS011;63206;55.650;37.500;2023-02-18T04:20:22;37.05;;;12.18;;
70385;SDS011;63206;55.650;37.500;2023-02-18T04:22:48;38.75;;;13.57;;
70385;SDS011;63206;55.650;37.500;2023-02-18T04:25:14;31.67;;;10.38;;
70385;SDS011;63206;55.650;37.500;2023-02-18T04:27:40;28.13;;;9.63;;
70385;SDS011;63206;55.650;37.500;2023-02-18T04:30:11;32.35;;;12.23;;
70385;SDS011;63206;55.650;37.500;2023-02-18T04:32:40;36.05;;;9.68;;
70385;SDS011;63206;55.650;37.500;2023-02-18T04:35:14;37.35;;;11.88;;
70385;SDS011;63206;55.650;37.500;2023-02-18T04:37:43;34.92;;;10.82;;
70385;SDS011;63206;55.650;37.500;2023-02-18T04:40:12;33.00;;;11.20;;
70385;SDS011;63206;55.650;37.500;2023-02-18T04:42:43;35.28;;;11.02;;
70385;SDS011;63206;55.650;37.500;2023-02-18T04:45:12;19.52;;;7.38;;
70385;SDS011;63206;55.650;37.500;2023-02-18T04:47:41;30.88;;;11.07;;
70385;SDS011;63206;55.650;37.500;2023-02-18T04:50:12;34.90;;;10.75;;
70385;SDS011;63206;55.650;37.500;2023-02-18T04:52:47;42.58;;;11.98;;
70385;SDS011;63206;55.650;37.500;2023-02-18T04:55:15;30.63;;;8.95;;
70385;SDS011;63206;55.650;37.500;2023-02-18T04:57:41;26.90;;;9.52;;
70385;SDS011;63206;55.650;37.500;2023-02-18T05:00:08;28.00;;;10.43;;
70385;SDS011;63206;55.650;37.500;2023-02-18T05:02:34;27.75;;;7.80;;
70385;SDS011;63206;55.650;37.500;2023-02-18T05:05:03;28.52;;;9.82;;
70385;SDS011;63206;55.650;37.500;2023-02-18T05:07:29;25.92;;;9.77;;
70385;SDS011;63206;55.650;37.500;2023-02-18T05:09:58;37.67;;;12.15;;
70385;SDS011;63206;55.650;37.500;2023-02-18T05:12:23;31.60;;;10.70;;
70385;SDS011;63206;55.650;37.500;2023-02-18T05:14:49;31.95;;;11.02;;
70385;SDS011;63206;55.650;37.500;2023-02-18T05:17:15;29.13;;;10.77;;
70385;SDS011;63206;55.650;37.500;2023-02-18T05:19:44;31.65;;;9.77;;
70385;SDS011;63206;55.650;37.500;2023-02-18T05:22:10;29.50;;;10.95;;
70385;SDS011;63206;55.650;37.500;2023-02-18T05:24:38;29.08;;;10.77;;
70385;SDS011;63206;55.650;37.500;2023-02-18T05:27:07;29.13;;;10.10;;
70385;SDS011;63206;55.650;37.500;2023-02-18T05:29:36;27.15;;;8.68;;
70385;SDS011;63206;55.650;37.500;2023-02-18T05:32:02;23.60;;;8.32;;
70385;SDS011;63206;55.650;37.500;2023-02-18T05:34:28;27.17;;;9.43;;
70385;SDS011;63206;55.650;37.500;2023-02-18T05:36:56;24.98;;;10.45;;
70385;SDS011;63206;55.650;37.500;2023-02-18T05:39:22;30.40;;;11.25;;
70385;SDS011;63206;55.650;37.500;2023-02-18T05:41:51;35.70;;;10.93;;
70385;SDS011;63206;55.650;37.500;2023-02-18T05:44:17;33.10;;;12.90;;
70385;SDS011;63206;55.650;37.500;2023-02-18T05:46:56;22.10;;;7.63;;
70385;SDS011;63206;55.650;37.500;2023-02-18T05:49:29;29.52;;;10.73;;
70385;SDS011;63206;55.650;37.500;2023-02-18T05:51:59;31.10;;;10.00;;
70385;SDS011;63206;55.650;37.500;2023-02-18T05:54:25;26.02;;;8.52;;
70385;SDS011;63206;55.650;37.500;2023-02-18T05:56:56;21.02;;;8.32;;
70385;SDS011;63206;55.650;37.500;2023-02-18T05:59:22;17.52;;;7.22;;
70385;SDS011;63206;55.650;37.500;2023-02-18T06:01:50;22.13;;;9.02;;
70385;SDS011;63206;55.650;37.500;2023-02-18T06:04:16;26.10;;;9.30;;
70385;SDS011;63206;55.650;37.500;2023-02-18T06:06:48;28.83;;;9.93;;
70385;SDS011;63206;55.650;37.500;2023-02-18T06:09:20;25.20;;;8.77;;
70385;SDS011;63206;55.650;37.500;2023-02-18T06:11:49;34.42;;;11.27;;
70385;SDS011;63206;55.650;37.500;2023-02-18T06:14:23;31.55;;;11.52;;
70385;SDS011;63206;55.650;37.500;2023-02-18T06:16:49;32.05;;;10.68;;
70385;SDS011;63206;55.650;37.500;2023-02-18T06:19:20;28.17;;;10.23;;
70385;SDS011;63206;55.650;37.500;2023-02-18T06:21:46;33.67;;;11.25;;
70385;SDS011;63206;55.650;37.500;2023-02-18T06:24:15;23.27;;;9.40;;
70385;SDS011;63206;55.650;37.500;2023-02-18T06:26:41;29.42;;;9.25;;
70385;SDS011;63206;55.650;37.500;2023-02-18T06:29:07;25.45;;;8.35;;
70385;SDS011;63206;55.650;37.500;2023-02-18T06:31:36;25.63;;;9.35;;
70385;SDS011;63206;55.650;37.500;2023-02-18T06:34:02;28.70;;;9.45;;
70385;SDS011;63206;55.650;37.500;2023-02-18T06:36:28;26.00;;;7.78;;
70385;SDS011;63206;55.650;37.500;2023-02-18T06:38:54;29.92;;;10.40;;
70385;SDS011;63206;55.650;37.500;2023-02-18T06:41:27;27.63;;;8.98;;
70385;SDS011;63206;55.650;37.500;2023-02-18T06:43:53;27.05;;;7.97;;
70385;SDS011;63206;55.650;37.500;2023-02-18T06:46:19;29.80;;;10.68;;
70385;SDS011;63206;55.650;37.500;2023-02-18T06:48:53;28.75;;;9.32;;
70385;SDS011;63206;55.650;37.500;2023-02-18T06:51:25;26.30;;;9.10;;
70385;SDS011;63206;55.650;37.500;2023-02-18T06:53:59;22.77;;;7.82;;
70385;SDS011;63206;55.650;37.500;2023-02-18T06:56:27;27.25;;;7.80;;
70385;SDS011;63206;55.650;37.500;2023-02-18T06:59:01;28.92;;;8.52;;
70385;SDS011;63206;55.650;37.500;2023-02-18T07:01:27;26.80;;;9.57;;
70385;SDS011;63206;55.650;37.500;2023-02-18T07:03:56;23.50;;;7.07;;
70385;SDS011;63206;55.650;37.500;2023-02-18T07:06:34;32.85;;;8.52;;
70385;SDS011;63206;55.650;37.500;2023-02-18T07:09:05;28.25;;;9.93;;
70385;SDS011;63206;55.650;37.500;2023-02-18T07:11:31;21.65;;;8.82;;
70385;SDS011;63206;55.650;37.500;2023-02-18T07:14:00;22.42;;;8.60;;
70385;SDS011;63206;55.650;37.500;2023-02-18T07:16:26;24.23;;;8.18;;
70385;SDS011;63206;55.650;37.500;2023-02-18T07:19:00;17.15;;;6.50;;
70385;SDS011;63206;55.650;37.500;2023-02-18T07:21:29;19.73;;;7.05;;
70385;SDS011;63206;55.650;37.500;2023-02-18T07:23:55;19.77;;;7.68;;
70385;SDS011;63206;55.650;37.500;2023-02-18T07:26:24;18.25;;;7.20;;
70385;SDS011;63206;55.650;37.500;2023-02-18T07:28:50;17.50;;;5.32;;
70385;SDS011;63206;55.650;37.500;2023-02-18T07:31:22;17.13;;;5.63;;
70385;SDS011;63206;55.650;37.500;2023-02-18T07:33:53;12.27;;;4.78;;
70385;SDS011;63206;55.650;37.500;2023-02-18T07:36:19;20.35;;;7.22;;
70385;SDS011;63206;55.650;37.500;2023-02-18T07:38:45;15.30;;;5.80;;
70385;SDS011;63206;55.650;37.500;2023-02-18T07:41:20;17.95;;;5.93;;
70385;SDS011;63206;55.650;37.500;2023-02-18T07:43:50;16.50;;;6.47;;
70385;SDS011;63206;55.650;37.500;2023-02-18T07:46:18;15.50;;;5.28;;
70385;SDS011;63206;55.650;37.500;2023-02-18T07:48:44;14.40;;;5.63;;
70385;SDS011;63206;55.650;37.500;2023-02-18T07:51:11;11.13;;;4.88;;
70385;SDS011;63206;55.650;37.500;2023-02-18T07:53:40;14.73;;;5.50;;
70385;SDS011;63206;55.650;37.500;2023-02-18T07:56:08;12.77;;;4.70;;
70385;SDS011;63206;55.650;37.500;2023-02-18T07:58:35;11.30;;;4.38;;
70385;SDS011;63206;55.650;37.500;2023-02-18T08:01:05;12.15;;;4.22;;
70385;SDS011;63206;55.650;37.500;2023-02-18T08:03:37;15.27;;;4.80;;
70385;SDS011;63206;55.650;37.500;2023-02-18T08:06:12;12.85;;;4.93;;
70385;SDS011;63206;55.650;37.500;2023-02-18T08:08:42;13.07;;;4.60;;
70385;SDS011;63206;55.650;37.500;2023-02-18T08:11:13;14.45;;;5.15;;
70385;SDS011;63206;55.650;37.500;2023-02-18T08:13:45;16.92;;;5.55;;
70385;SDS011;63206;55.650;37.500;2023-02-18T08:16:14;12.52;;;4.45;;
70385;SDS011;63206;55.650;37.500;2023-02-18T08:18:41;16.65;;;5.50;;
70385;SDS011;63206;55.650;37.500;2023-02-18T08:21:12;16.25;;;6.45;;
70385;SDS011;63206;55.650;37.500;2023-02-18T08:23:40;15.68;;;5.45;;
70385;SDS011;63206;55.650;37.500;2023-02-18T08:26:09;14.55;;;5.07;;
70385;SDS011;63206;55.650;37.500;2023-02-18T08:28:43;15.57;;;5.80;;
70385;SDS011;63206;55.650;37.500;2023-02-18T08:31:16;15.52;;;4.93;;
70385;SDS011;63206;55.650;37.500;2023-02-18T08:33:42;19.98;;;6.00;;
70385;SDS011;63206;55.650;37.500;2023-02-18T08:36:08;12.82;;;4.68;;
70385;SDS011;63206;55.650;37.500;2023-02-18T08:38:38;11.13;;;4.47;;
70385;SDS011;63206;55.650;37.500;2023-02-18T08:41:07;10.90;;;4.55;;
70385;SDS011;63206;55.650;37.500;2023-02-18T08:43:38;10.80;;;3.83;;
70385;SDS011;63206;55.650;37.500;2023-02-18T08:46:08;13.25;;;4.78;;
70385;SDS011;63206;55.650;37.500;2023-02-18T08:48:37;11.05;;;3.65;;
70385;SDS011;63206;55.650;37.500;2023-02-18T08:51:13;10.75;;;3.45;;
70385;SDS011;63206;55.650;37.500;2023-02-18T08:53:39;14.57;;;5.40;;
70385;SDS011;63206;55.650;37.500;2023-02-18T08:56:11;13.38;;;5.53;;
70385;SDS011;63206;55.650;37.500;2023-02-18T08:58:40;12.32;;;4.60;;
70385;SDS011;63206;55.650;37.500;2023-02-18T09:01:11;12.18;;;5.10;;
70385;SDS011;63206;55.650;37.500;2023-02-18T09:03:46;16.45;;;4.75;;
70385;SDS011;63206;55.650;37.500;2023-02-18T09:06:21;13.55;;;5.35;;
70385;SDS011;63206;55.650;37.500;2023-02-18T09:08:47;11.82;;;4.38;;
70385;SDS011;63206;55.650;37.500;2023-02-18T09:13:53;12.95;;;4.45;;
70385;SDS011;63206;55.650;37.500;2023-02-18T09:16:19;12.43;;;4.70;;
70385;SDS011;63206;55.650;37.500;2023-02-18T09:18:45;13.02;;;4.50;;
70385;SDS011;63206;55.650;37.500;2023-02-18T09:21:17;10.88;;;4.15;;
70385;SDS011;63206;55.650;37.500;2023-02-18T09:23:48;11.02;;;3.58;;
70385;SDS011;63206;55.650;37.500;2023-02-18T09:26:20;10.68;;;4.10;;
70385;SDS011;63206;55.650;37.500;2023-02-18T09:28:55;12.65;;;4.78;;
70385;SDS011;63206;55.650;37.500;2023-02-18T09:31:22;16.50;;;5.60;;
70385;SDS011;63206;55.650;37.500;2023-02-18T09:33:53;11.55;;;4.88;;
70385;SDS011;63206;55.650;37.500;2023-02-18T09:36:22;15.88;;;6.40;;
70385;SDS011;63206;55.650;37.500;2023-02-18T09:38:51;15.70;;;5.65;;
70385;SDS011;63206;55.650;37.500;2023-02-18T09:46:42;15.02;;;4.93;;
70385;SDS011;63206;55.650;37.500;2023-02-18T09:49:17;15.55;;;5.40;;
70385;SDS011;63206;55.650;37.500;2023-02-18T09:51:44;16.50;;;5.80;;
70385;SDS011;63206;55.650;37.500;2023-02-18T09:54:14;14.00;;;5.13;;
70385;SDS011;63206;55.650;37.500;2023-02-18T09:56:46;12.80;;;4.47;;
70385;SDS011;63206;55.650;37.500;2023-02-18T09:59:19;15.05;;;5.20;;
70385;SDS011;63206;55.650;37.500;2023-02-18T10:01:49;14.50;;;5.80;;
70385;SDS011;63206;55.650;37.500;2023-02-18T10:06:51;14.18;;;5.88;;
70385;SDS011;63206;55.650;37.500;2023-02-18T10:09:21;12.95;;;5.72;;
70385;SDS011;63206;55.650;37.500;2023-02-18T10:12:34;15.85;;;6.15;;
70385;SDS011;63206;55.650;37.500;2023-02-18T10:14:48;13.40;;;5.22;;
70385;SDS011;63206;55.650;37.500;2023-02-18T10:17:17;16.10;;;6.45;;
70385;SDS011;63206;55.650;37.500;2023-02-18T10:19:49;18.45;;;6.70;;
70385;SDS011;63206;55.650;37.500;2023-02-18T10:22:24;19.27;;;6.57;;
70385;SDS011;63206;55.650;37.500;2023-02-18T10:24:55;17.15;;;6.70;;
70385;SDS011;63206;55.650;37.500;2023-02-18T10:29:54;14.40;;;5.63;;
70385;SDS011;63206;55.650;37.500;2023-02-18T10:32:31;16.70;;;7.43;;
70385;SDS011;63206;55.650;37.500;2023-02-18T10:35:05;17.90;;;6.78;;
70385;SDS011;63206;55.650;37.500;2023-02-18T10:50:45;17.02;;;6.20;;
70385;SDS011;63206;55.650;37.500;2023-02-18T10:53:36;14.38;;;5.43;;
70385;SDS011;63206;55.650;37.500;2023-02-18T10:56:30;14.80;;;5.60;;
70385;SDS011;63206;55.650;37.500;2023-02-18T11:01:41;13.15;;;5.20;;
70385;SDS011;63206;55.650;37.500;2023-02-18T11:04:17;17.48;;;5.20;;
70385;SDS011;63206;55.650;37.500;2023-02-18T11:06:50;12.18;;;5.45;;
70385;SDS011;63206;55.650;37.500;2023-02-18T11:09:41;13.27;;;5.22;;
70385;SDS011;63206;55.650;37.500;2023-02-18T11:12:22;17.80;;;5.55;;
70385;SDS011;63206;55.650;37.500;2023-02-18T11:15:07;14.18;;;4.68;;
70385;SDS011;63206;55.650;37.500;2023-02-18T11:17:47;20.42;;;6.47;;
70385;SDS011;63206;55.650;37.500;2023-02-18T11:20:33;18.02;;;5.95;;
70385;SDS011;63206;55.650;37.500;2023-02-18T11:25:34;14.00;;;5.78;;
70385;SDS011;63206;55.650;37.500;2023-02-18T11:30:45;15.07;;;5.45;;
70385;SDS011;63206;55.650;37.500;2023-02-18T11:33:19;18.58;;;6.50;;
70385;SDS011;63206;55.650;37.500;2023-02-18T11:35:57;15.27;;;5.88;;
70385;SDS011;63206;55.650;37.500;2023-02-18T11:38:33;18.23;;;6.55;;
70385;SDS011;63206;55.650;37.500;2023-02-18T11:41:06;16.45;;;5.60;;
70385;SDS011;63206;55.650;37.500;2023-02-18T11:43:36;17.33;;;6.05;;
70385;SDS011;63206;55.650;37.500;2023-02-18T11:48:40;18.63;;;7.03;;
70385;SDS011;63206;55.650;37.500;2023-02-18T11:54:08;15.70;;;4.85;;
70385;SDS011;63206;55.650;37.500;2023-02-18T11:56:56;11.93;;;4.82;;
70385;SDS011;63206;55.650;37.500;2023-02-18T11:59:25;18.70;;;7.13;;
70385;SDS011;63206;55.650;37.500;2023-02-18T12:02:39;14.10;;;5.35;;
70385;SDS011;63206;55.650;37.500;2023-02-18T12:04:50;16.45;;;6.22;;
70385;SDS011;63206;55.650;37.500;2023-02-18T12:07:41;16.75;;;5.50;;
70385;SDS011;63206;55.650;37.500;2023-02-18T12:12:43;17.20;;;6.47;;
70385;SDS011;63206;55.650;37.500;2023-02-18T12:15:15;13.32;;;5.45;;
70385;SDS011;63206;55.650;37.500;2023-02-18T12:31:15;12.10;;;4.45;;
70385;SDS011;63206;55.650;37.500;2023-02-18T12:33:55;12.48;;;5.20;;
70385;SDS011;63206;55.650;37.500;2023-02-18T12:41:37;10.82;;;3.60;;
70385;SDS011;63206;55.650;37.500;2023-02-18T12:44:21;11.82;;;3.95;;
70385;SDS011;63206;55.650;37.500;2023-02-18T12:47:09;14.88;;;5.05;;
70385;SDS011;63206;55.650;37.500;2023-02-18T12:53:09;10.65;;;4.38;;
70385;SDS011;63206;55.650;37.500;2023-02-18T12:55:30;15.77;;;5.38;;
70385;SDS011;63206;55.650;37.500;2023-02-18T13:11:36;9.40;;;3.60;;
70385;SDS011;63206;55.650;37.500;2023-02-18T13:14:55;12.77;;;4.72;;
70385;SDS011;63206;55.650;37.500;2023-02-18T13:19:45;12.00;;;4.18;;
70385;SDS011;63206;55.650;37.500;2023-02-18T13:22:21;11.48;;;4.22;;
70385;SDS011;63206;55.650;37.500;2023-02-18T13:24:53;9.75;;;4.25;;
70385;SDS011;63206;55.650;37.500;2023-02-18T13:27:31;13.02;;;4.68;;
70385;SDS011;63206;55.650;37.500;2023-02-18T13:40:37;11.35;;;3.38;;
70385;SDS011;63206;55.650;37.500;2023-02-18T13:46:07;11.45;;;4.57;;
70385;SDS011;63206;55.650;37.500;2023-02-18T13:48:43;13.48;;;5.10;;
70385;SDS011;63206;55.650;37.500;2023-02-18T13:51:25;12.93;;;4.93;;
70385;SDS011;63206;55.650;37.500;2023-02-18T13:54:00;11.88;;;4.70;;
70385;SDS011;63206;55.650;37.500;2023-02-18T13:56:31;13.82;;;4.80;;
70385;SDS011;63206;55.650;37.500;2023-02-18T13:59:08;13.25;;;5.18;;
70385;SDS011;63206;55.650;37.500;2023-02-18T14:01:45;14.63;;;5.72;;
70385;SDS011;63206;55.650;37.500;2023-02-18T14:07:49;14.90;;;5.82;;
70385;SDS011;63206;55.650;37.500;2023-02-18T14:09:49;15.18;;;5.28;;
70385;SDS011;63206;55.650;37.500;2023-02-18T14:12:27;13.70;;;4.97;;
70385;SDS011;63206;55.650;37.500;2023-02-18T14:20:57;12.07;;;4.55;;
70385;SDS011;63206;55.650;37.500;2023-02-18T14:31:16;10.93;;;4.10;;
70385;SDS011;63206;55.650;37.500;2023-02-18T14:36:28;14.50;;;5.07;;
70385;SDS011;63206;55.650;37.500;2023-02-18T14:39:05;14.55;;;5.07;;
70385;SDS011;63206;55.650;37.500;2023-02-18T14:52:01;16.30;;;6.13;;
70385;SDS011;63206;55.650;37.500;2023-02-18T14:54:30;16.20;;;5.57;;
70385;SDS011;63206;55.650;37.500;2023-02-18T14:59:26;14.85;;;5.18;;
70385;SDS011;63206;55.650;37.500;2023-02-18T15:01:54;16.38;;;4.35;;
70385;SDS011;63206;55.650;37.500;2023-02-18T15:04:21;11.38;;;5.20;;
70385;SDS011;63206;55.650;37.500;2023-02-18T15:06:56;15.68;;;5.68;;
70385;SDS011;63206;55.650;37.500;2023-02-18T15:09:25;15.02;;;5.85;;
70385;SDS011;63206;55.650;37.500;2023-02-18T15:11:56;12.57;;;4.55;;
70385;SDS011;63206;55.650;37.500;2023-02-18T15:14:26;12.70;;;4.82;;
70385;SDS011;63206;55.650;37.500;2023-02-18T15:16:54;10.77;;;4.25;;
70385;SDS011;63206;55.650;37.500;2023-02-18T15:19:21;16.40;;;5.20;;
70385;SDS011;63206;55.650;37.500;2023-02-18T15:21:52;9.43;;;3.88;;
70385;SDS011;63206;55.650;37.500;2023-02-18T15:24:26;12.05;;;3.47;;
70385;SDS011;63206;55.650;37.500;2023-02-18T15:26:53;13.50;;;4.97;;
70385;SDS011;63206;55.650;37.500;2023-02-18T15:29:21;15.13;;;4.20;;
70385;SDS011;63206;55.650;37.500;2023-02-18T15:31:47;11.93;;;4.82;;
70385;SDS011;63206;55.650;37.500;2023-02-18T15:37:00;10.60;;;4.30;;
70385;SDS011;63206;55.650;37.500;2023-02-18T15:39:32;12.60;;;4.93;;
70385;SDS011;63206;55.650;37.500;2023-02-18T15:42:27;12.65;;;4.53;;
70385;SDS011;63206;55.650;37.500;2023-02-18T15:45:02;12.95;;;4.32;;
70385;SDS011;63206;55.650;37.500;2023-02-18T15:47:31;14.85;;;5.32;;
70385;SDS011;63206;55.650;37.500;2023-02-18T15:50:00;14.32;;;4.82;;
70385;SDS011;63206;55.650;37.500;2023-02-18T15:52:32;14.85;;;5.63;;
70385;SDS011;63206;55.650;37.500;2023-02-18T15:55:12;16.23;;;4.90;;
70385;SDS011;63206;55.650;37.500;2023-02-18T15:57:40;14.00;;;4.43;;
70385;SDS011;63206;55.650;37.500;2023-02-18T16:00:19;13.27;;;4.75;;
70385;SDS011;63206;55.650;37.500;2023-02-18T16:02:51;10.27;;;4.13;;
70385;SDS011;63206;55.650;37.500;2023-02-18T16:05:23;17.50;;;4.28;;
70385;SDS011;63206;55.650;37.500;2023-02-18T16:08:00;14.60;;;4.85;;
70385;SDS011;63206;55.650;37.500;2023-02-18T16:10:38;13.43;;;4.47;;
70385;SDS011;63206;55.650;37.500;2023-02-18T16:13:12;9.98;;;3.67;;
70385;SDS011;63206;55.650;37.500;2023-02-18T16:15:45;11.00;;;3.70;;
70385;SDS011;63206;55.650;37.500;2023-02-18T16:20:54;14.60;;;5.30;;
70385;SDS011;63206;55.650;37.500;2023-02-18T16:23:34;11.45;;;3.92;;
70385;SDS011;63206;55.650;37.500;2023-02-18T16:26:11;14.20;;;4.97;;
70385;SDS011;63206;55.650;37.500;2023-02-18T16:28:50;10.57;;;4.25;;
70385;SDS011;63206;55.650;37.500;2023-02-18T16:31:16;17.10;;;5.28;;
70385;SDS011;63206;55.650;37.500;2023-02-18T16:33:42;13.50;;;4.72;;
70385;SDS011;63206;55.650;37.500;2023-02-18T16:36:10;11.82;;;4.43;;
70385;SDS011;63206;55.650;37.500;2023-02-18T16:38:45;13.00;;;4.60;;
70385;SDS011;63206;55.650;37.500;2023-02-18T16:41:12;13.77;;;4.55;;
70385;SDS011;63206;55.650;37.500;2023-02-18T16:43:39;12.48;;;4.30;;
70385;SDS011;63206;55.650;37.500;2023-02-18T16:46:15;9.15;;;3.80;;
70385;SDS011;63206;55.650;37.500;2023-02-18T16:48:45;10.30;;;3.83;;
70385;SDS011;63206;55.650;37.500;2023-02-18T16:51:33;13.07;;;4.38;;
70385;SDS011;63206;55.650;37.500;2023-02-18T16:53:57;11.88;;;4.72;;
70385;SDS011;63206;55.650;37.500;2023-02-18T16:56:24;14.32;;;4.97;;
70385;SDS011;63206;55.650;37.500;2023-02-18T16:58:50;15.73;;;4.20;;
70385;SDS011;63206;55.650;37.500;2023-02-18T17:01:24;12.32;;;3.85;;
70385;SDS011;63206;55.650;37.500;2023-02-18T17:03:51;12.70;;;4.72;;
70385;SDS011;63206;55.650;37.500;2023-02-18T17:06:17;11.63;;;4.00;;
70385;SDS011;63206;55.650;37.500;2023-02-18T17:08:46;13.05;;;4.85;;
70385;SDS011;63206;55.650;37.500;2023-02-18T17:11:22;12.10;;;4.30;;
70385;SDS011;63206;55.650;37.500;2023-02-18T17:13:50;14.20;;;4.18;;
70385;SDS011;63206;55.650;37.500;2023-02-18T17:16:17;9.55;;;3.20;;
70385;SDS011;63206;55.650;37.500;2023-02-18T17:18:43;12.32;;;3.72;;
70385;SDS011;63206;55.650;37.500;2023-02-18T17:21:13;14.25;;;4.93;;
70385;SDS011;63206;55.650;37.500;2023-02-18T17:23:40;11.35;;;4.22;;
70385;SDS011;63206;55.650;37.500;2023-02-18T17:26:09;11.60;;;4.13;;
70385;SDS011;63206;55.650;37.500;2023-02-18T17:28:36;14.10;;;4.97;;
70385;SDS011;63206;55.650;37.500;2023-02-18T17:31:04;12.15;;;3.55;;
70385;SDS011;63206;55.650;37.500;2023-02-18T17:33:30;15.57;;;4.72;;